Time;durP1;ratioP1;P1;durP2;ratioP2;P2;SDS_P1;SDS_P2;PMS_P1;PMS_P2;Temp;Humidity;BMP_temperature;BMP_pressure;BME280_temperature;BME280_humidity;BME280_pressure;Samples;Min_cycle;Max_cycle;Signal;HPM_P1;HPM_P2
2022/02/07 00:01:18;;;;;;;2.70;1.50;;;;;;;1.68;65.22;97410.99;104974;1271;74502;-23
2022/02/07 00:03:52;;;;;;;4.60;1.20;;;;;;;2.18;63.41;97400.40;105047;1271;74394;-23
2022/02/07 00:06:20;;;;;;;1.60;1.00;;;;;;;2.14;62.68;97397.27;105161;1271;61108;-23
2022/02/07 00:09:08;;;;;;;2.80;0.90;;;;;;;2.02;63.05;97402.27;105116;1271;61580;-23
2022/02/07 00:11:38;;;;;;;1.80;1.30;;;;;;;1.97;63.08;97397.30;105009;1271;75587;-23
2022/02/07 00:14:07;;;;;;;1.60;1.10;;;;;;;1.92;63.68;97400.92;104942;1271;75867;-23
2022/02/07 00:16:55;;;;;;;3.60;1.40;;;;;;;1.81;64.20;97400.86;104821;1271;74705;-23
2022/02/07 00:19:26;;;;;;;2.80;1.30;;;;;;;1.73;64.31;97393.23;104852;1272;61115;-23
2022/02/07 00:21:57;;;;;;;1.60;1.00;;;;;;;1.69;64.46;97396.19;105133;1271;61978;-23
2022/02/07 00:24:45;;;;;;;3.00;1.40;;;;;;;1.67;64.91;97398.29;105086;1271;75532;-23
2022/02/07 00:27:14;;;;;;;3.60;1.90;;;;;;;1.61;65.21;97395.72;105022;1271;76605;-23
2022/02/07 00:29:42;;;;;;;1.70;1.40;;;;;;;1.58;65.81;97387.38;104906;1271;74381;-23
2022/02/07 00:32:11;;;;;;;4.60;2.10;;;;;;;1.58;67.04;97377.99;104814;1271;61042;-23
2022/02/07 00:34:39;;;;;;;3.30;2.20;;;;;;;1.98;67.42;97376.66;104958;1271;61014;-23
2022/02/07 00:37:08;;;;;;;3.20;2.20;;;;;;;2.27;67.37;97370.80;105029;1271;75573;-23
2022/02/07 00:39:45;;;;;;;5.10;1.80;;;;;;;2.28;67.87;97356.88;105099;1274;76046;-24
2022/02/07 00:42:23;;;;;;;5.60;2.40;;;;;;;2.21;68.11;97353.29;104917;1271;72805;-23
2022/02/07 00:44:52;;;;;;;3.50;2.00;;;;;;;2.08;68.85;97340.17;104813;1274;61460;-23
2022/02/07 00:47:21;;;;;;;4.90;1.60;;;;;;;1.87;69.96;97328.52;105025;1271;61041;-23
2022/02/07 00:49:49;;;;;;;2.70;2.20;;;;;;;1.71;70.76;97319.09;105155;1271;75609;-24
2022/02/07 00:52:18;;;;;;;4.30;2.80;;;;;;;1.91;70.02;97308.06;105163;1271;76005;-23
2022/02/07 00:54:46;;;;;;;1.60;1.20;;;;;;;2.40;68.64;97308.05;104843;1271;73645;-23
2022/02/07 00:57:17;;;;;;;4.10;2.20;;;;;;;2.56;67.44;97297.41;104806;1271;61132;-23
2022/02/07 00:59:45;;;;;;;4.30;1.80;;;;;;;2.49;67.14;97287.46;104816;1272;61036;-23
2022/02/07 01:02:14;;;;;;;3.60;1.90;;;;;;;2.30;67.42;97281.07;104835;1272;74524;-23
2022/02/07 01:04:42;;;;;;;1.60;1.30;;;;;;;2.16;67.61;97271.44;104795;1274;74019;-23
2022/02/07 01:07:11;;;;;;;2.20;1.00;;;;;;;2.08;67.68;97265.59;104850;1271;73986;-23
2022/02/07 01:09:44;;;;;;;3.20;1.90;;;;;;;1.95;67.71;97257.30;104952;1271;61156;-23
2022/02/07 01:12:27;;;;;;;5.00;1.40;;;;;;;1.85;68.13;97249.94;104868;1271;61144;-23
2022/02/07 01:23:52;;;;;;;2.00;1.30;;;;;;;2.70;62.68;97227.58;104863;1271;60966;-23
2022/02/07 01:46:05;;;;;;;1.90;1.30;;;;;;;2.57;66.89;97206.52;105123;1271;75174;-23
2022/02/07 01:49:01;;;;;;;4.60;2.20;;;;;;;2.50;67.47;97206.94;105148;1271;74311;-23
2022/02/07 01:56:34;;;;;;;3.70;1.70;;;;;;;1.71;71.91;97203.96;105088;1271;75794;-23
2022/02/07 01:59:03;;;;;;;3.40;1.90;;;;;;;1.90;71.69;97200.69;104928;1271;75032;-23
2022/02/07 02:01:37;;;;;;;1.50;1.30;;;;;;;2.30;70.59;97186.29;104767;1271;74882;-23
2022/02/07 02:04:07;;;;;;;3.20;1.00;;;;;;;2.31;70.25;97170.48;104878;1271;61150;-21
2022/02/07 02:06:37;;;;;;;2.10;1.40;;;;;;;2.22;70.47;97160.78;105166;1274;61643;-23
2022/02/07 02:09:23;;;;;;;1.50;1.30;;;;;;;1.96;71.54;97148.52;104879;1271;73829;-24
2022/02/07 02:11:51;;;;;;;2.40;1.20;;;;;;;1.79;72.29;97137.16;104857;1272;74677;-24
2022/02/07 02:47:27;;;;;;;5.60;2.70;;;;;;;2.02;68.19;97091.46;104744;1271;61196;-23
2022/02/07 02:50:26;;;;;;;5.00;3.40;;;;;;;1.88;68.96;97080.52;105137;1271;75566;-23
2022/02/07 02:52:57;;;;;;;2.90;1.50;;;;;;;2.23;68.55;97076.30;105137;1271;75815;-23
2022/02/07 02:55:25;;;;;;;2.40;1.40;;;;;;;2.47;67.34;97071.60;104987;1272;73478;-23
2022/02/07 02:57:54;;;;;;;2.90;1.90;;;;;;;2.40;67.08;97062.92;104936;1271;61101;-23
2022/02/07 03:00:27;;;;;;;3.00;1.50;;;;;;;2.26;67.32;97055.48;104875;1271;62267;-23
2022/02/07 03:02:57;;;;;;;4.20;1.80;;;;;;;2.16;67.39;97051.82;104719;1271;74225;-23
2022/02/07 03:05:26;;;;;;;3.90;2.80;;;;;;;2.11;67.18;97045.22;104831;1272;75836;-23
2022/02/07 03:07:54;;;;;;;3.80;2.20;;;;;;;2.02;67.56;97048.98;104882;1271;74480;-23
2022/02/07 03:13:17;;;;;;;2.70;1.90;;;;;;;2.78;64.90;97053.22;104529;1274;61131;-23
2022/02/07 03:18:34;;;;;;;3.30;1.70;;;;;;;2.59;64.64;97052.69;104818;1271;75997;-23
2022/02/07 03:21:03;;;;;;;4.30;1.80;;;;;;;2.51;64.64;97065.98;105080;1271;74133;-23
2022/02/07 03:23:33;;;;;;;2.30;1.30;;;;;;;2.38;64.52;97068.39;105141;1271;61150;-23
2022/02/07 03:26:04;;;;;;;3.40;2.30;;;;;;;2.30;64.88;97073.30;105169;1271;61130;-23
2022/02/07 03:28:32;;;;;;;3.10;2.20;;;;;;;2.18;65.49;97070.64;105147;1271;73863;-23
2022/02/07 03:31:01;;;;;;;1.90;1.70;;;;;;;1.98;66.58;97072.50;105179;1271;74969;-22
2022/02/07 03:33:30;;;;;;;3.10;2.00;;;;;;;1.91;67.47;97077.02;105110;1271;73363;-22
2022/02/07 03:35:59;;;;;;;2.70;1.70;;;;;;;2.16;67.88;97072.02;104854;1271;61036;-22
2022/02/07 03:38:28;;;;;;;2.40;1.80;;;;;;;2.23;68.38;97070.59;104915;1271;61023;-22
2022/02/07 03:40:56;;;;;;;6.30;1.90;;;;;;;2.02;70.21;97064.19;104763;1271;74666;-22
2022/02/07 03:43:26;;;;;;;2.70;2.00;;;;;;;1.77;71.87;97065.27;104866;1271;75852;-22
2022/02/07 03:45:54;;;;;;;2.70;2.20;;;;;;;1.60;73.31;97055.59;105038;1271;74136;-22
2022/02/07 03:48:24;;;;;;;2.90;1.60;;;;;;;1.88;73.48;97043.88;104778;1274;61284;-22
2022/02/07 03:50:52;;;;;;;4.50;2.60;;;;;;;1.96;73.25;97044.30;104734;1271;61478;-22
2022/02/07 03:53:21;;;;;;;3.20;2.20;;;;;;;1.71;74.07;97050.15;104806;1271;74036;-22
2022/02/07 03:56:05;;;;;;;;;;;;;;;1.51;74.43;97050.66;104894;1271;75739;-22
2022/02/07 03:58:35;;;;;;;1.70;1.30;;;;;;;1.32;75.13;97043.52;104856;1271;73359;-22
2022/02/07 04:01:04;;;;;;;2.30;1.60;;;;;;;1.69;74.29;97040.19;104876;1271;61035;-22
2022/02/07 04:03:37;;;;;;;2.80;1.60;;;;;;;1.89;73.33;97036.40;104862;1271;62119;-23
2022/02/07 04:06:12;;;;;;;1.80;1.40;;;;;;;1.73;73.51;97040.10;104853;1271;74530;-22
2022/02/07 04:08:45;;;;;;;9.50;2.60;;;;;;;1.59;73.81;97039.29;104849;1271;76147;-22
2022/02/07 04:11:28;;;;;;;2.60;1.50;;;;;;;1.33;74.56;97045.49;104897;1271;72294;-22
2022/02/07 04:13:58;;;;;;;11.40;2.50;;;;;;;1.75;73.45;97039.21;104857;1271;61868;-22
2022/02/07 04:16:29;;;;;;;3.80;1.90;;;;;;;2.10;71.44;97032.41;104792;1271;60996;-22
2022/02/07 04:19:21;;;;;;;3.60;2.20;;;;;;;2.03;70.68;97040.15;104815;1271;74616;-22
2022/02/07 04:21:53;;;;;;;3.90;2.70;;;;;;;1.85;70.33;97045.63;104965;1271;74795;-22
2022/02/07 04:24:28;;;;;;;4.70;2.50;;;;;;;1.69;70.22;97041.23;104901;1271;73441;-23
2022/02/07 04:27:04;;;;;;;2.10;1.40;;;;;;;1.58;69.80;97043.42;104856;1271;61053;-22
2022/02/07 04:29:34;;;;;;;4.60;3.20;;;;;;;1.49;70.17;97046.81;104768;1271;60945;-22
2022/02/07 04:32:04;;;;;;;2.30;1.80;;;;;;;1.92;68.38;97049.05;104793;1271;75702;-22
2022/02/07 04:34:33;;;;;;;4.70;2.20;;;;;;;2.17;67.28;97055.02;104794;1271;75159;-22
2022/02/07 04:37:02;;;;;;;5.20;2.20;;;;;;;2.07;67.44;97057.32;104961;1271;74517;-22
2022/02/07 04:39:31;;;;;;;1.80;1.30;;;;;;;1.96;67.75;97061.77;104969;1271;61045;-22
2022/02/07 04:42:12;;;;;;;2.60;1.70;;;;;;;1.76;68.32;97063.77;104865;1271;61124;-22
2022/02/07 04:44:56;;;;;;;4.00;2.10;;;;;;;1.64;68.66;97069.16;104806;1271;75585;-22
2022/02/07 04:53:50;;;;;;;3.80;2.10;;;;;;;2.35;66.03;97066.77;104557;1277;61156;-22
2022/02/07 04:57:06;;;;;;;1.80;1.50;;;;;;;2.20;66.12;97072.38;104849;1271;61210;-23
2022/02/07 04:59:13;;;;;;;4.00;1.90;;;;;;;2.00;66.92;97071.88;104831;1271;74175;-23
2022/02/07 05:01:50;;;;;;;1.50;1.10;;;;;;;1.79;67.13;97080.30;104894;1271;75129;-22
2022/02/07 05:15:48;;;;;;;3.60;2.30;;;;;;;2.14;66.42;97068.61;105108;1271;75998;-23
2022/02/07 05:18:19;;;;;;;4.00;2.00;;;;;;;2.35;66.42;97063.89;104903;1271;74879;-23
2022/02/07 05:21:07;;;;;;;2.00;1.40;;;;;;;2.13;67.63;97058.34;105010;1271;61137;-23
2022/02/07 05:24:04;;;;;;;4.00;2.30;;;;;;;1.91;69.23;97051.88;105065;1271;61472;-23
2022/02/07 05:26:51;;;;;;;4.20;2.30;;;;;;;1.68;70.82;97052.59;104911;1271;74787;-23
2022/02/07 05:29:49;;;;;;;2.90;1.80;;;;;;;1.63;71.58;97049.77;104460;1275;75781;-23
2022/02/07 05:32:31;;;;;;;1.60;1.20;;;;;;;2.00;70.98;97047.95;105112;1271;74399;-22
2022/02/07 05:35:08;;;;;;;3.50;1.80;;;;;;;2.03;70.57;97049.20;105116;1271;61083;-23
2022/02/07 05:37:49;;;;;;;3.30;1.90;;;;;;;1.76;71.26;97046.02;105094;1271;61949;-22
2022/02/07 05:41:10;;;;;;;4.60;2.60;;;;;;;1.51;72.46;97053.73;105175;1271;75893;-22
2022/02/07 05:43:44;;;;;;;3.60;2.40;;;;;;;1.45;73.25;97053.66;105146;1271;76071;-23
2022/02/07 05:46:23;;;;;;;3.50;2.20;;;;;;;1.81;72.38;97058.77;104918;1271;73579;-23
2022/02/07 05:48:52;;;;;;;6.00;2.30;;;;;;;1.89;71.60;97052.90;104868;1271;61111;-21
2022/02/07 05:51:32;;;;;;;3.30;2.30;;;;;;;1.64;72.74;97048.45;104956;1271;61028;-22
2022/02/07 05:54:23;;;;;;;5.50;2.80;;;;;;;1.36;74.45;97055.20;104701;1272;74455;-22
2022/02/07 05:57:00;;;;;;;2.40;1.80;;;;;;;1.42;75.12;97056.95;104749;1271;75823;-24
2022/02/07 05:59:40;;;;;;;4.30;1.90;;;;;;;1.78;74.44;97064.30;104901;1271;74403;-24
2022/02/07 06:02:35;;;;;;;3.20;1.80;;;;;;;1.83;74.42;97066.48;104883;1271;61045;-25
2022/02/07 06:05:10;;;;;;;1.90;1.70;;;;;;;1.66;75.08;97063.19;104923;1271;61056;-23
2022/02/07 06:07:39;;;;;;;3.50;1.80;;;;;;;1.48;76.00;97063.91;104801;1271;75636;-23
2022/02/07 06:10:09;;;;;;;3.20;2.00;;;;;;;1.35;76.58;97062.44;104948;1271;74988;-23
2022/02/07 06:12:39;;;;;;;3.20;1.70;;;;;;;1.84;75.94;97064.58;104915;1271;74450;-23
2022/02/07 06:15:09;;;;;;;5.00;2.00;;;;;;;2.22;74.61;97063.67;104882;1271;61244;-23
2022/02/07 06:17:39;;;;;;;3.90;1.60;;;;;;;2.16;74.31;97064.13;104954;1271;61757;-23
2022/02/07 06:20:08;;;;;;;3.00;1.70;;;;;;;2.00;74.62;97059.09;104931;1271;72891;-23
2022/02/07 06:22:37;;;;;;;4.10;2.30;;;;;;;1.79;75.50;97057.95;104751;1271;76010;-23
2022/02/07 06:25:06;;;;;;;4.20;2.20;;;;;;;1.64;76.20;97054.26;104905;1271;75472;-23
2022/02/07 06:27:34;;;;;;;3.40;2.30;;;;;;;1.85;75.82;97055.91;104776;1271;62970;-23
2022/02/07 06:30:05;;;;;;;3.80;2.20;;;;;;;2.36;74.13;97050.55;104897;1271;61099;-23
2022/02/07 06:32:40;;;;;;;2.50;1.90;;;;;;;2.48;73.30;97045.53;104863;1271;75781;-23
2022/02/07 06:35:09;;;;;;;2.80;2.00;;;;;;;2.30;73.31;97043.35;105042;1271;74269;-22
2022/02/07 06:37:43;;;;;;;3.00;1.50;;;;;;;2.09;73.61;97042.12;104903;1271;74615;-22
2022/02/07 06:40:11;;;;;;;4.10;2.40;;;;;;;1.93;74.37;97042.15;104810;1271;61103;-23
2022/02/07 06:42:40;;;;;;;4.20;2.80;;;;;;;1.76;74.77;97045.34;104851;1271;61108;-23
2022/02/07 06:45:09;;;;;;;5.10;1.80;;;;;;;2.08;74.18;97041.27;104879;1271;75474;-22
2022/02/07 06:47:38;;;;;;;3.10;2.00;;;;;;;2.43;72.83;97036.52;104913;1271;75742;-23
2022/02/07 06:50:07;;;;;;;7.00;3.90;;;;;;;2.33;72.45;97036.06;105081;1271;72615;-23
2022/02/07 06:52:37;;;;;;;4.90;3.20;;;;;;;2.25;72.70;97035.88;105123;1271;61149;-23
2022/02/07 06:55:07;;;;;;;4.80;2.90;;;;;;;2.00;73.43;97033.56;105087;1271;61098;-23
2022/02/07 06:57:36;;;;;;;6.30;2.10;;;;;;;1.83;73.83;97028.15;105132;1271;74735;-23
2022/02/07 07:00:06;;;;;;;2.50;1.80;;;;;;;2.21;73.41;97027.48;104959;1271;75315;-23
2022/02/07 07:02:42;;;;;;;4.50;2.10;;;;;;;2.60;71.70;97032.91;104980;1271;71872;-23
2022/02/07 07:05:14;;;;;;;2.10;1.70;;;;;;;2.70;71.33;97035.88;104798;1271;61256;-23
2022/02/07 07:07:47;;;;;;;5.60;2.40;;;;;;;2.47;72.25;97037.69;104787;1271;61919;-23
2022/02/07 07:10:18;;;;;;;5.50;2.50;;;;;;;2.36;73.14;97036.55;105047;1271;75220;-22
2022/02/07 07:12:55;;;;;;;2.80;1.90;;;;;;;2.24;73.90;97034.92;105083;1271;73941;-22
2022/02/07 07:15:35;;;;;;;3.50;2.00;;;;;;;2.41;73.92;97036.80;104916;1271;73599;-23
2022/02/07 07:18:04;;;;;;;3.40;2.10;;;;;;;3.13;71.98;97051.75;104871;1271;61124;-23
2022/02/07 07:20:35;;;;;;;6.10;2.60;;;;;;;3.27;71.15;97049.09;104903;1271;61906;-22
2022/02/07 07:23:03;;;;;;;2.90;2.10;;;;;;;3.23;71.15;97053.69;104693;1271;74638;-23
2022/02/07 07:25:36;;;;;;;8.90;3.40;;;;;;;3.05;71.61;97055.65;104909;1271;74944;-23
2022/02/07 07:28:08;;;;;;;5.40;3.90;;;;;;;2.66;72.86;97059.54;104904;1271;74539;-23
2022/02/07 07:30:46;;;;;;;3.70;2.60;;;;;;;2.56;73.41;97065.52;104900;1271;61595;-22
2022/02/07 07:33:19;;;;;;;3.70;2.40;;;;;;;2.55;73.66;97066.52;105052;1271;62056;-23
2022/02/07 07:35:49;;;;;;;4.60;3.40;;;;;;;3.07;72.01;97069.88;105114;1271;73981;-23
2022/02/07 07:38:19;;;;;;;4.90;2.80;;;;;;;3.09;71.60;97069.57;105135;1271;74722;-23
2022/02/07 07:40:48;;;;;;;5.60;3.20;;;;;;;2.98;72.10;97074.94;105124;1271;73348;-23
2022/02/07 07:43:23;;;;;;;6.70;3.50;;;;;;;2.85;72.51;97075.64;105126;1271;61134;-22
2022/02/07 07:46:13;;;;;;;6.00;3.00;;;;;;;2.61;73.61;97077.87;105028;1271;62019;-22
2022/02/07 07:49:16;;;;;;;4.60;2.40;;;;;;;2.52;74.08;97077.73;104349;1271;74649;-23
2022/02/07 07:52:28;;;;;;;3.80;2.20;;;;;;;2.98;73.59;97084.55;104762;1271;75075;-21
2022/02/07 08:03:40;;;;;;;3.30;1.80;;;;;;;2.98;73.20;97096.48;104877;1271;75863;-21
2022/02/07 08:06:31;;;;;;;2.50;1.70;;;;;;;2.83;74.21;97103.17;104771;1271;75030;-21
2022/02/07 08:11:41;;;;;;;5.40;2.30;;;;;;;3.39;73.53;97107.59;104945;1271;61122;-22
2022/02/07 08:14:10;;;;;;;4.60;2.30;;;;;;;3.79;72.25;97108.78;105124;1271;61105;-21
2022/02/07 08:16:39;;;;;;;3.00;1.70;;;;;;;3.75;72.26;97107.40;105004;1271;75281;-24
2022/02/07 08:19:08;;;;;;;4.60;2.20;;;;;;;3.44;73.01;97111.31;104963;1271;75807;-22
2022/02/07 08:21:36;;;;;;;3.30;2.30;;;;;;;3.23;74.04;97113.71;104946;1271;74702;-23
2022/02/07 08:24:05;;;;;;;2.90;2.00;;;;;;;3.03;75.19;97101.80;105079;1271;61170;-23
2022/02/07 08:26:34;;;;;;;2.60;1.70;;;;;;;2.94;75.96;97105.13;104869;1271;62242;-23
2022/02/07 08:29:02;;;;;;;2.30;1.60;;;;;;;3.36;75.64;97104.61;105126;1271;73216;-22
2022/02/07 08:31:31;;;;;;;6.20;2.40;;;;;;;3.70;74.28;97099.20;105104;1270;75723;-22
2022/02/07 08:33:59;;;;;;;4.60;1.80;;;;;;;3.77;74.04;97115.23;104870;1271;74408;-22
2022/02/07 08:36:28;;;;;;;2.10;1.50;;;;;;;3.68;74.49;97118.26;104858;1271;61115;-22
2022/02/07 08:38:58;;;;;;;2.50;1.60;;;;;;;3.44;75.36;97112.16;104937;1271;62490;-22
2022/02/07 08:41:28;;;;;;;3.10;2.50;;;;;;;3.30;75.44;97113.02;105085;1271;75316;-22
2022/02/07 08:43:57;;;;;;;2.10;1.50;;;;;;;3.17;76.67;97117.98;104906;1271;75229;-22
2022/02/07 08:46:25;;;;;;;4.70;1.80;;;;;;;3.79;75.28;97128.84;104802;1271;73132;-22
2022/02/07 08:48:55;;;;;;;3.30;1.70;;;;;;;4.18;73.98;97127.61;104886;1271;62055;-22
2022/02/07 08:51:23;;;;;;;4.20;2.50;;;;;;;4.18;73.23;97117.64;104930;1271;60955;-22
2022/02/07 08:53:52;;;;;;;3.40;2.10;;;;;;;3.94;73.71;97109.00;104879;1271;75304;-22
2022/02/07 08:56:30;;;;;;;3.90;2.70;;;;;;;3.61;74.99;97100.61;105076;1271;75144;-22
2022/02/07 08:58:59;;;;;;;4.30;2.60;;;;;;;3.46;75.51;97103.56;104938;1271;72731;-22
2022/02/07 09:01:40;;;;;;;3.70;2.20;;;;;;;3.32;75.95;97100.83;104953;1271;61134;-22
2022/02/07 09:04:41;;;;;;;4.50;2.10;;;;;;;3.68;75.48;97105.04;104926;1271;62050;-22
2022/02/07 09:07:10;;;;;;;3.40;2.40;;;;;;;4.02;73.97;97105.25;104776;1271;75648;-22
2022/02/07 09:09:41;;;;;;;2.20;1.50;;;;;;;3.99;73.89;97104.27;104884;1271;74971;-22
2022/02/07 09:12:12;;;;;;;3.90;2.50;;;;;;;3.73;74.75;97106.52;104779;1271;73488;-22
2022/02/07 09:14:55;;;;;;;2.00;1.80;;;;;;;3.59;75.00;97115.91;104758;1271;61280;-24
2022/02/07 09:17:24;;;;;;;3.20;2.20;;;;;;;3.49;75.21;97114.02;104858;1271;61128;-23
2022/02/07 09:19:54;;;;;;;1.90;1.50;;;;;;;3.73;75.34;97114.89;104945;1271;75384;-23
2022/02/07 09:22:23;;;;;;;2.30;1.80;;;;;;;4.25;73.73;97113.06;104936;1271;75859;-23
2022/02/07 09:24:51;;;;;;;3.60;2.50;;;;;;;4.30;73.10;97109.74;104909;1271;74454;-23
2022/02/07 09:27:19;;;;;;;3.90;2.40;;;;;;;4.16;73.19;97109.52;104890;1269;61960;-22
2022/02/07 09:29:47;;;;;;;2.80;1.80;;;;;;;4.05;73.25;97108.45;104922;1271;61745;-23
2022/02/07 09:32:16;;;;;;;3.70;2.60;;;;;;;3.75;74.20;97104.25;105023;1271;75509;-24
2022/02/07 09:34:45;;;;;;;1.60;1.20;;;;;;;3.64;74.74;97105.16;104920;1271;75931;-24
2022/02/07 09:37:13;;;;;;;2.80;2.50;;;;;;;3.57;75.31;97106.42;104884;1271;75222;-25
2022/02/07 09:39:41;;;;;;;2.50;1.70;;;;;;;4.09;73.91;97104.84;104815;1271;61242;-22
2022/02/07 09:42:10;;;;;;;2.70;1.90;;;;;;;4.12;73.57;97100.46;105135;1271;61813;-23
2022/02/07 09:44:45;;;;;;;4.10;2.30;;;;;;;4.22;73.00;97096.86;105140;1271;75515;-22
2022/02/07 09:47:16;;;;;;;3.10;2.40;;;;;;;4.30;72.53;97093.41;105131;1270;75927;-23
2022/02/07 09:49:45;;;;;;;3.20;2.20;;;;;;;4.23;72.83;97083.23;105125;1271;74362;-23
2022/02/07 09:52:13;;;;;;;5.20;2.60;;;;;;;4.35;72.66;97090.64;105141;1271;61131;-23
2022/02/07 09:54:42;;;;;;;3.20;2.20;;;;;;;4.54;71.72;97094.05;105180;1271;62994;-23
2022/02/07 09:57:11;;;;;;;5.10;3.20;;;;;;;4.47;72.26;97094.20;105162;1271;75503;-22
2022/02/07 09:59:39;;;;;;;4.60;2.70;;;;;;;4.94;71.09;97087.89;105095;1271;74998;-22
2022/02/07 10:02:25;;;;;;;2.10;1.60;;;;;;;5.25;69.54;97080.44;104933;1271;73478;-22
2022/02/07 10:05:19;;;;;;;4.40;3.20;;;;;;;5.00;70.22;97076.64;105093;1271;61228;-22
2022/02/07 10:08:08;;;;;;;4.20;2.30;;;;;;;4.79;70.57;97067.48;105043;1271;62044;-22
2022/02/07 10:10:49;;;;;;;4.00;2.10;;;;;;;4.70;71.18;97060.60;104881;1274;75376;-22
2022/02/07 10:13:33;;;;;;;3.00;2.30;;;;;;;4.57;71.50;97057.64;105123;1271;75955;-24
2022/02/07 10:16:22;;;;;;;4.20;2.20;;;;;;;4.85;70.54;97058.33;105104;1272;70223;-22
2022/02/07 10:22:57;;;;;;;3.40;2.60;;;;;;;5.25;69.51;97055.17;105065;1271;61247;-22
2022/02/07 10:39:13;;;;;;;4.20;2.80;;;;;;;6.13;65.44;97043.75;104835;1271;73666;-22
2022/02/07 10:47:19;;;;;;;3.90;2.70;;;;;;;6.83;63.76;97045.88;105127;1271;61284;-22
2022/02/07 10:50:14;;;;;;;4.50;2.60;;;;;;;7.03;63.08;97038.58;105117;1271;62273;-22
2022/02/07 10:52:49;;;;;;;3.40;2.30;;;;;;;7.10;61.95;97034.63;105124;1271;74626;-22
2022/02/07 10:55:38;;;;;;;4.30;2.60;;;;;;;7.26;61.47;97040.59;104817;1271;75831;-22
2022/02/07 10:58:07;;;;;;;4.30;3.10;;;;;;;7.26;61.23;97037.67;104804;1271;72281;-22
2022/02/07 11:00:41;;;;;;;7.00;3.00;;;;;;;7.23;61.14;97032.80;104923;1271;61986;-22
2022/02/07 11:03:18;;;;;;;3.60;2.60;;;;;;;7.25;61.04;97037.08;104946;1271;61693;-22
2022/02/07 11:05:54;;;;;;;3.40;2.80;;;;;;;7.18;60.93;97043.80;104809;1271;75256;-22
2022/02/07 11:08:43;;;;;;;5.30;3.00;;;;;;;7.23;61.10;97045.06;104814;1271;76345;-22
2022/02/07 11:14:08;;;;;;;3.00;2.40;;;;;;;7.31;60.51;97064.14;104889;1271;61219;-22
2022/02/07 11:16:52;;;;;;;4.50;3.20;;;;;;;7.28;60.42;97065.45;104727;1271;61147;-22
2022/02/07 11:27:58;;;;;;;3.90;2.70;;;;;;;7.08;60.86;97081.73;104841;1271;61054;-22
2022/02/07 11:30:47;;;;;;;4.00;2.60;;;;;;;6.87;61.05;97078.92;104864;1271;61119;-22
2022/02/07 11:36:36;;;;;;;2.80;2.20;;;;;;;6.32;62.72;97088.20;105128;1271;76061;-23
2022/02/07 11:39:13;;;;;;;3.60;2.20;;;;;;;6.06;63.42;97098.16;105096;1271;74299;-23
2022/02/07 11:42:00;;;;;;;4.50;2.30;;;;;;;5.84;64.21;97104.13;105043;1271;61192;-23
2022/02/07 11:44:33;;;;;;;3.60;2.50;;;;;;;5.63;64.53;97104.19;104933;1271;62065;-23
2022/02/07 11:47:24;;;;;;;3.20;2.50;;;;;;;5.44;65.28;97108.98;104914;1271;73529;-23
2022/02/07 11:49:55;;;;;;;3.40;2.20;;;;;;;5.43;65.22;97118.08;104948;1271;76559;-22
2022/02/07 11:52:32;;;;;;;4.00;2.20;;;;;;;5.34;65.13;97127.70;104944;1271;74180;-23
2022/02/07 11:55:14;;;;;;;3.40;2.10;;;;;;;5.23;65.42;97127.06;105129;1271;61128;-23
2022/02/07 11:57:57;;;;;;;3.30;2.30;;;;;;;5.11;65.78;97131.02;104900;1271;62038;-23
2022/02/07 12:00:31;;;;;;;4.10;2.40;;;;;;;5.02;65.94;97127.05;105077;1271;74613;-23
2022/02/07 12:03:06;;;;;;;3.40;2.40;;;;;;;4.98;66.14;97122.77;104947;1271;75734;-23
2022/02/07 12:05:44;;;;;;;2.50;1.90;;;;;;;5.01;66.03;97119.89;105097;1272;74577;-22
2022/02/07 12:08:24;;;;;;;3.20;2.10;;;;;;;4.97;66.05;97121.60;105076;1272;61000;-22
2022/02/07 12:11:02;;;;;;;3.00;2.10;;;;;;;5.03;65.97;97122.30;105054;1271;61190;-22
2022/02/07 12:13:41;;;;;;;3.20;2.20;;;;;;;5.03;65.87;97127.25;105142;1271;76856;-22
2022/02/07 12:16:09;;;;;;;3.30;2.60;;;;;;;4.95;65.59;97123.36;105144;1271;74019;-22
2022/02/07 12:18:38;;;;;;;2.90;1.70;;;;;;;4.95;65.33;97122.66;104998;1271;74462;-22
2022/02/07 12:21:32;;;;;;;2.80;2.00;;;;;;;5.05;64.87;97121.81;105091;1271;61338;-22
2022/02/07 12:24:03;;;;;;;2.60;2.20;;;;;;;4.99;64.91;97113.76;105101;1274;61035;-22
2022/02/07 12:26:37;;;;;;;3.80;2.30;;;;;;;4.94;65.02;97110.39;104676;1271;73922;-24
2022/02/07 12:29:14;;;;;;;3.70;2.40;;;;;;;4.87;65.45;97106.55;104841;1271;75144;-24
2022/02/07 12:31:43;;;;;;;3.30;2.30;;;;;;;4.69;66.09;97112.20;104969;1271;73375;-22
2022/02/07 12:34:15;;;;;;;4.00;2.80;;;;;;;4.73;66.07;97109.16;104862;1272;61105;-23
2022/02/07 12:36:44;;;;;;;6.90;2.40;;;;;;;4.80;66.00;97110.92;104949;1271;61858;-22
2022/02/07 12:39:14;;;;;;;3.20;2.50;;;;;;;4.90;65.74;97112.42;105008;1271;75519;-22
2022/02/07 12:41:43;;;;;;;2.90;2.50;;;;;;;4.90;65.57;97112.59;104814;1271;75802;-22
2022/02/07 12:44:18;;;;;;;4.10;2.40;;;;;;;4.97;65.36;97112.05;104941;1271;73479;-22
2022/02/07 12:46:47;;;;;;;3.00;1.90;;;;;;;4.98;65.50;97117.45;104857;1271;61058;-23
2022/02/07 12:49:22;;;;;;;2.70;2.30;;;;;;;5.02;65.41;97117.77;104807;1271;61149;-22
2022/02/07 12:51:50;;;;;;;2.80;2.00;;;;;;;4.99;65.62;97117.01;104868;1271;74805;-22
2022/02/07 12:54:20;;;;;;;2.90;2.40;;;;;;;4.91;65.63;97115.81;104836;1271;76047;-22
2022/02/07 12:56:49;;;;;;;3.50;2.50;;;;;;;4.99;65.61;97113.91;104794;1271;74372;-22
2022/02/07 12:59:17;;;;;;;5.20;2.60;;;;;;;5.09;65.02;97109.89;104970;1271;61156;-24
2022/02/07 13:01:46;;;;;;;4.60;2.40;;;;;;;5.11;65.12;97108.30;104932;1271;61154;-22
2022/02/07 13:04:19;;;;;;;3.00;2.00;;;;;;;5.18;64.91;97111.86;104913;1271;73539;-22
2022/02/07 13:06:49;;;;;;;3.40;2.20;;;;;;;5.22;65.13;97119.92;104804;1272;76206;-22
2022/02/07 13:09:27;;;;;;;3.40;2.40;;;;;;;5.12;65.05;97119.42;104921;1271;72801;-22
2022/02/07 13:12:21;;;;;;;4.10;2.20;;;;;;;5.05;65.37;97123.34;105041;1271;61470;-22
2022/02/07 13:14:51;;;;;;;3.60;2.40;;;;;;;5.08;65.41;97117.25;105103;1271;61276;-22
2022/02/07 13:17:22;;;;;;;4.20;2.50;;;;;;;5.11;65.34;97116.08;105034;1271;75578;-22
2022/02/07 13:19:52;;;;;;;3.80;2.60;;;;;;;5.00;65.47;97116.68;105004;1271;75855;-23
2022/02/07 13:22:24;;;;;;;3.50;2.50;;;;;;;5.01;65.57;97119.40;105004;1271;73506;-22
2022/02/07 13:24:55;;;;;;;3.10;2.40;;;;;;;5.02;65.48;97117.88;105082;1271;61140;-23
2022/02/07 13:27:24;;;;;;;4.90;3.00;;;;;;;4.99;65.73;97121.33;105146;1271;61142;-21
2022/02/07 13:29:57;;;;;;;3.30;2.20;;;;;;;4.96;65.76;97126.02;105165;1271;75383;-23
2022/02/07 13:32:28;;;;;;;4.50;3.00;;;;;;;4.89;66.08;97133.69;105064;1271;76528;-24
2022/02/07 13:35:09;;;;;;;6.40;2.90;;;;;;;4.78;66.43;97134.11;104805;1271;71499;-24
2022/02/07 13:37:40;;;;;;;4.90;2.30;;;;;;;4.82;66.27;97134.16;104819;1271;61169;-22
2022/02/07 13:40:13;;;;;;;2.90;2.50;;;;;;;4.87;66.30;97134.71;104892;1271;62159;-22
2022/02/07 13:42:43;;;;;;;3.30;1.90;;;;;;;4.91;66.29;97136.72;104887;1271;76056;-22
2022/02/07 13:45:12;;;;;;;4.30;2.70;;;;;;;5.52;65.29;97141.98;105100;1271;75179;-23
2022/02/07 13:47:46;;;;;;;4.80;2.80;;;;;;;6.09;62.52;97143.37;105143;1271;74469;-22
2022/02/07 13:50:19;;;;;;;3.10;2.40;;;;;;;6.16;61.92;97148.56;104901;1271;62000;-22
2022/02/07 13:52:49;;;;;;;3.30;2.70;;;;;;;6.00;62.35;97150.38;104751;1271;62544;-22
2022/02/07 13:55:39;;;;;;;4.40;3.00;;;;;;;5.77;63.06;97147.33;104790;1270;75600;-23
2022/02/07 13:58:11;;;;;;;5.20;3.00;;;;;;;5.41;64.16;97148.13;105001;1271;75743;-22
2022/02/07 14:00:52;;;;;;;6.80;3.00;;;;;;;5.16;65.03;97147.44;104731;1271;73456;-22
2022/02/07 14:03:33;;;;;;;5.00;2.70;;;;;;;4.96;65.80;97142.37;104750;1271;61337;-22
2022/02/07 14:06:11;;;;;;;4.10;2.90;;;;;;;4.87;66.05;97140.52;105006;1271;61109;-22
2022/02/07 14:08:49;;;;;;;5.80;3.20;;;;;;;4.75;66.65;97144.39;105165;1270;75393;-22
2022/02/07 14:11:29;;;;;;;3.60;2.70;;;;;;;4.61;67.17;97145.11;105048;1271;74245;-23
2022/02/07 14:14:01;;;;;;;4.60;2.80;;;;;;;4.55;67.19;97159.30;104884;1272;74478;-22
2022/02/07 14:17:05;;;;;;;2.50;2.10;;;;;;;4.51;67.17;97163.78;103858;1281;61119;-22
2022/02/07 14:19:38;;;;;;;3.10;2.10;;;;;;;4.44;67.40;97169.05;104240;1281;61124;-22
2022/02/07 14:22:10;;;;;;;5.30;2.50;;;;;;;4.34;67.66;97176.05;104147;1283;75623;-22
2022/02/07 14:24:39;;;;;;;3.30;2.50;;;;;;;4.21;68.36;97178.02;103888;1283;76082;-25
2022/02/07 14:27:16;;;;;;;3.80;2.60;;;;;;;4.12;68.60;97180.66;104103;1283;73287;-23